Time;durP1;ratioP1;P1;durP2;ratioP2;P2;SDS_P1;SDS_P2;PMS_P1;PMS_P2;Temp;Humidity;BMP_temperature;BMP_pressure;BME280_temperature;BME280_humidity;BME280_pressure;Samples;Min_cycle;Max_cycle;Signal;HPM_P1;HPM_P2
2023/12/03 00:00:07;;;;;;;;;69.50;53.25;;;;;2.55;60.02;101771.66;5076860;28;46385;-42
2023/12/03 00:02:33;;;;;;;;;61.25;48.00;;;;;2.51;59.81;101770.09;5079495;28;45509;-43
2023/12/03 00:04:59;;;;;;;;;62.00;49.75;;;;;2.48;59.29;101778.09;5079586;28;45306;-43
2023/12/03 00:07:24;;;;;;;;;65.25;50.75;;;;;2.43;59.72;101770.41;5079679;28;45330;-43
2023/12/03 00:09:50;;;;;;;;;63.75;49.50;;;;;2.37;60.08;101775.97;5079213;28;45404;-42
2023/12/03 00:12:16;;;;;;;;;62.75;50.50;;;;;2.32;59.96;101770.06;5078145;28;45365;-43
2023/12/03 00:14:42;;;;;;;;;74.75;56.75;;;;;2.35;60.64;101782.19;5079383;28;45432;-43
2023/12/03 00:17:08;;;;;;;;;72.00;56.00;;;;;2.32;60.56;101784.94;5079505;28;45399;-43
2023/12/03 00:19:33;;;;;;;;;68.25;50.50;;;;;2.27;61.01;101781.69;5079212;28;45388;-43
2023/12/03 00:21:59;;;;;;;;;73.25;55.75;;;;;2.22;61.07;101779.25;5078625;28;45257;-43
2023/12/03 00:24:24;;;;;;;;;58.00;44.00;;;;;2.15;60.85;101773.44;5079298;28;45391;-42
2023/12/03 00:26:49;;;;;;;;;67.00;49.00;;;;;2.14;61.65;101781.38;5079175;28;45316;-43
2023/12/03 00:29:15;;;;;;;;;60.25;46.25;;;;;2.09;61.50;101772.84;5078918;28;46258;-42
2023/12/03 00:31:40;;;;;;;;;61.75;49.50;;;;;2.10;61.89;101771.91;5078818;28;45230;-43
2023/12/03 00:34:06;;;;;;;;;59.75;47.75;;;;;2.07;62.03;101785.19;5079056;28;45458;-43
2023/12/03 00:36:32;;;;;;;;;50.00;43.00;;;;;2.04;61.99;101787.94;5079043;28;45724;-43
2023/12/03 00:38:58;;;;;;;;;57.75;45.75;;;;;2.07;61.69;101779.94;5078784;28;45462;-43
2023/12/03 00:41:23;;;;;;;;;66.00;49.00;;;;;1.99;61.55;101754.03;5078745;28;45553;-46
2023/12/03 00:43:49;;;;;;;;;31.00;22.50;;;;;2.11;61.73;101777.13;5078979;28;45327;-42
2023/12/03 00:46:21;;;;;;;;;65.75;48.00;;;;;2.11;61.62;101784.16;5079168;28;45852;-43
2023/12/03 00:48:48;;;;;;;;;55.00;46.00;;;;;2.10;61.62;101780.66;5078732;28;46524;-42
2023/12/03 00:51:14;;;;;;;;;64.25;42.75;;;;;2.10;61.31;101782.41;5078722;28;45299;-43
2023/12/03 00:53:40;;;;;;;;;44.00;36.00;;;;;2.11;60.97;101785.00;5078689;28;45371;-43
2023/12/03 00:56:06;;;;;;;;;56.00;44.25;;;;;2.07;61.58;101774.69;5078686;28;45365;-44
2023/12/03 00:58:32;;;;;;;;;54.00;38.50;;;;;2.06;61.66;101771.19;5078461;28;45274;-42
2023/12/03 01:00:57;;;;;;;;;66.00;46.50;;;;;2.04;61.38;101775.69;5078575;28;45397;-43
2023/12/03 01:03:22;;;;;;;;;53.50;40.00;;;;;2.03;61.69;101778.38;5078484;28;45310;-45
2023/12/03 01:05:48;;;;;;;;;51.25;40.75;;;;;2.06;61.47;101772.97;5078696;28;45298;-43
2023/12/03 01:08:14;;;;;;;;;55.50;42.50;;;;;2.04;61.52;101773.06;5078342;28;45992;-45
2023/12/03 01:10:39;;;;;;;;;44.75;40.00;;;;;1.98;61.60;101768.06;5078612;28;45331;-43
2023/12/03 01:13:05;;;;;;;;;61.50;44.50;;;;;1.98;61.90;101774.19;5077615;28;45204;-47
2023/12/03 01:15:31;;;;;;;;;55.75;45.75;;;;;1.96;61.88;101772.53;5078651;28;45428;-43
2023/12/03 01:17:56;;;;;;;;;48.75;42.50;;;;;1.95;61.59;101773.47;5078283;28;45569;-43
2023/12/03 01:20:21;;;;;;;;;54.75;44.50;;;;;1.57;61.68;101704.28;5059946;28;45543;-42
2023/12/03 01:22:47;;;;;;;;;48.75;38.50;;;;;1.79;61.79;101743.53;5078526;28;45408;-43
2023/12/03 01:25:12;;;;;;;;;47.50;40.50;;;;;1.92;62.29;101770.97;5078013;28;45421;-43
2023/12/03 01:27:37;;;;;;;;;60.00;48.00;;;;;1.90;62.44;101775.44;5077768;28;48097;-43
2023/12/03 01:30:03;;;;;;;;;54.75;38.00;;;;;1.86;62.51;101768.59;5078243;28;45385;-47
2023/12/03 01:32:28;;;;;;;;;55.25;40.00;;;;;1.85;62.42;101766.88;5078202;28;45480;-43
2023/12/03 01:34:53;;;;;;;;;45.75;41.75;;;;;1.82;62.31;101765.25;5078313;28;45249;-44
2023/12/03 01:37:19;;;;;;;;;57.75;42.75;;;;;1.73;62.51;101758.63;5059816;28;50234;-41
2023/12/03 01:39:44;;;;;;;;;53.50;43.00;;;;;1.75;62.93;101776.91;5078006;28;45435;-43
2023/12/03 01:42:10;;;;;;;;;55.50;45.00;;;;;1.72;62.96;101772.66;5077981;28;45377;-43
2023/12/03 01:44:35;;;;;;;;;69.00;46.50;;;;;1.68;63.43;101778.94;5078252;28;45448;-43
2023/12/03 01:47:02;;;;;;;;;63.25;46.50;;;;;1.66;63.08;101790.44;5077736;28;45542;-43
2023/12/03 01:49:28;;;;;;;;;53.00;46.00;;;;;1.66;63.05;101777.31;5077823;28;45428;-43
2023/12/03 01:51:53;;;;;;;;;62.50;45.75;;;;;1.56;63.25;101761.13;5077872;28;45453;-44
2023/12/03 01:54:19;;;;;;;;;44.25;33.00;;;;;1.60;63.34;101765.31;5078041;28;45473;-44
2023/12/03 01:56:45;;;;;;;;;50.75;37.00;;;;;1.54;63.42;101762.94;5077505;28;45405;-43
2023/12/03 01:59:10;;;;;;;;;30.25;29.50;;;;;1.52;63.71;101771.78;5077537;28;45825;-43
2023/12/03 02:01:39;;;;;;;;;72.00;51.25;;;;;1.47;63.90;101766.72;5077648;28;45256;-45
2023/12/03 02:04:04;;;;;;;;;48.25;43.00;;;;;1.50;63.68;101771.84;5077987;28;45513;-43
2023/12/03 02:06:30;;;;;;;;;58.50;45.75;;;;;1.46;63.66;101776.34;5077353;28;49470;-43
2023/12/03 02:08:55;;;;;;;;;49.50;38.50;;;;;1.43;64.45;101779.13;5058990;28;48201;-45
2023/12/03 02:11:20;;;;;;;;;52.25;41.50;;;;;1.36;64.92;101779.44;5077496;28;45395;-43
2023/12/03 02:13:47;;;;;;;;;51.50;40.50;;;;;1.33;64.40;101783.03;5077469;28;45360;-46
2023/12/03 02:16:13;;;;;;;;;66.75;44.50;;;;;1.29;63.70;101768.31;5076858;28;45321;-43
2023/12/03 02:18:38;;;;;;;;;60.25;43.75;;;;;1.28;64.17;101768.41;5077257;28;45340;-43
2023/12/03 02:21:04;;;;;;;;;54.50;39.50;;;;;1.18;64.38;101766.16;5077582;28;45292;-42
2023/12/03 02:23:31;;;;;;;;;42.50;27.25;;;;;1.14;63.89;101767.19;5076498;28;45585;-43
2023/12/03 02:25:57;;;;;;;;;46.25;37.75;;;;;1.10;64.71;101756.91;5077041;28;46491;-42
2023/12/03 02:28:22;;;;;;;;;54.00;43.50;;;;;1.02;64.58;101759.81;5076827;28;45339;-45
2023/12/03 02:30:48;;;;;;;;;62.00;48.00;;;;;0.85;65.57;101755.25;5077209;28;45421;-46
2023/12/03 02:33:13;;;;;;;;;47.75;40.00;;;;;0.86;66.44;101771.81;5077432;28;45432;-43
2023/12/03 02:35:38;;;;;;;;;65.50;44.50;;;;;0.82;66.59;101772.84;5059003;28;46136;-44
2023/12/03 02:38:04;;;;;;;;;53.50;41.00;;;;;0.85;66.26;101772.72;5077016;28;45261;-42
2023/12/03 02:40:37;;;;;;;;;45.25;45.00;;;;;0.84;66.35;101771.00;5059153;28;45434;-42
2023/12/03 02:43:03;;;;;;;;;43.50;34.00;;;;;0.83;66.25;101775.38;5077184;28;45458;-45
2023/12/03 02:45:28;;;;;;;;;59.25;41.25;;;;;0.73;66.49;101751.31;5077005;28;45857;-43
2023/12/03 02:47:53;;;;;;;;;42.75;37.50;;;;;0.81;66.19;101768.50;5076948;28;45411;-44
2023/12/03 02:50:19;;;;;;;;;46.75;37.25;;;;;0.82;65.99;101762.34;5077070;28;45490;-45
2023/12/03 02:52:44;;;;;;;;;48.00;45.00;;;;;0.74;66.08;101758.25;5077259;28;45299;-44
2023/12/03 02:55:09;;;;;;;;;46.75;40.50;;;;;0.68;66.55;101753.28;5076745;28;46415;-44
2023/12/03 02:57:35;;;;;;;;;55.00;43.50;;;;;0.74;67.03;101762.66;5076690;28;45707;-44
2023/12/03 03:00:01;;;;;;;;;55.00;45.00;;;;;0.73;66.84;101758.31;5076951;28;45417;-43
2023/12/03 03:02:26;;;;;;;;;59.75;39.25;;;;;0.68;66.41;101761.13;5077029;28;45414;-42
2023/12/03 03:04:51;;;;;;;;;44.75;36.75;;;;;0.67;67.02;101754.16;5076515;28;46171;-44
2023/12/03 03:07:17;;;;;;;;;58.00;43.25;;;;;0.66;66.65;101756.84;5076658;28;45337;-42
2023/12/03 03:09:42;;;;;;;;;43.25;36.75;;;;;0.75;66.48;101766.97;5076495;28;45215;-43
2023/12/03 03:12:08;;;;;;;;;54.75;45.00;;;;;0.75;66.62;101757.34;5076963;28;45314;-43
2023/12/03 03:14:33;;;;;;;;;60.00;39.00;;;;;0.80;66.70;101759.81;5076474;28;45378;-42
2023/12/03 03:16:58;;;;;;;;;66.75;52.75;;;;;0.85;67.25;101762.25;5076719;28;45445;-43
2023/12/03 03:19:23;;;;;;;;;44.50;39.75;;;;;0.88;66.44;101764.72;5076541;28;45840;-47
2023/12/03 03:21:49;;;;;;;;;65.00;40.75;;;;;0.92;66.62;101771.56;5076597;28;45574;-44
2023/12/03 03:24:14;;;;;;;;;51.50;36.50;;;;;0.92;66.31;101764.53;5076667;28;45246;-43
2023/12/03 03:26:39;;;;;;;;;57.00;43.50;;;;;0.89;66.95;101775.16;5076293;28;47506;-44
2023/12/03 03:29:06;;;;;;;;;41.25;35.00;;;;;0.90;66.54;101776.00;5076221;28;45367;-45
2023/12/03 03:31:31;;;;;;;;;54.75;36.50;;;;;0.91;66.49;101781.19;5058594;28;45296;-45
2023/12/03 03:33:57;;;;;;;;;50.25;36.50;;;;;0.92;66.20;101776.78;5076126;28;47211;-42
2023/12/03 03:36:22;;;;;;;;;45.50;43.75;;;;;0.93;65.93;101791.63;5079063;28;45288;-46
2023/12/03 03:38:49;;;;;;;;;47.00;36.50;;;;;0.86;66.18;101771.81;5080084;28;45522;-46
2023/12/03 03:41:14;;;;;;;;;47.50;34.00;;;;;0.93;66.37;101775.91;5080421;28;45471;-46
2023/12/03 03:43:39;;;;;;;;;42.50;33.75;;;;;0.91;65.88;101772.47;5061525;28;47111;-46
2023/12/03 03:46:05;;;;;;;;;43.75;36.00;;;;;0.91;66.40;101781.19;5079647;28;45480;-41
2023/12/03 03:48:30;;;;;;;;;44.00;34.25;;;;;0.90;66.19;101781.25;5079865;28;45373;-42
2023/12/03 03:50:55;;;;;;;;;56.25;41.00;;;;;0.92;66.67;101784.66;5079884;28;45841;-44
2023/12/03 03:53:21;;;;;;;;;39.75;30.25;;;;;0.94;65.58;101770.59;5079448;28;52035;-46
2023/12/03 03:55:46;;;;;;;;;43.50;38.50;;;;;0.97;66.07;101759.16;5079482;28;45360;-43
2023/12/03 03:58:12;;;;;;;;;41.00;33.75;;;;;0.90;66.07;101752.44;5079575;28;45422;-42
2023/12/03 04:00:38;;;;;;;;;47.50;35.25;;;;;0.81;66.78;101752.78;5079799;28;45414;-43
2023/12/03 04:03:03;;;;;;;;;57.50;40.25;;;;;0.95;66.53;101768.81;5079338;28;45345;-44
2023/12/03 04:05:29;;;;;;;;;41.00;35.75;;;;;0.93;66.37;101776.75;5079542;28;45431;-47
2023/12/03 04:07:54;;;;;;;;;47.50;39.00;;;;;0.87;66.16;101768.25;5079299;28;45386;-44
2023/12/03 04:10:20;;;;;;;;;44.50;35.75;;;;;0.83;65.98;101753.56;5079817;28;45271;-43
2023/12/03 04:12:47;;;;;;;;;41.75;36.25;;;;;0.86;66.08;101756.09;5079080;28;45352;-43
2023/12/03 04:15:13;;;;;;;;;51.50;39.50;;;;;0.66;66.46;101721.03;5079463;28;45398;-44
2023/12/03 04:17:39;;;;;;;;;40.00;36.25;;;;;0.80;66.72;101751.06;5079140;28;45433;-44
2023/12/03 04:20:05;;;;;;;;;47.50;36.25;;;;;0.77;66.50;101753.81;5079391;28;45403;-42
2023/12/03 04:22:30;;;;;;;;;43.25;34.50;;;;;0.71;65.96;101762.75;5078904;28;47223;-43
2023/12/03 04:24:55;;;;;;;;;50.50;39.25;;;;;0.72;66.61;101759.25;5079039;28;45394;-43
2023/12/03 04:27:21;;;;;;;;;46.00;35.00;;;;;0.72;66.78;101760.09;5078734;28;45475;-42
2023/12/03 04:29:46;;;;;;;;;55.00;41.50;;;;;0.67;66.60;101769.88;5079207;28;45257;-42
2023/12/03 04:32:11;;;;;;;;;43.00;38.00;;;;;0.66;66.15;101767.31;5078574;28;51026;-42
2023/12/03 04:34:40;;;;;;;;;47.00;39.00;;;;;0.71;67.03;101775.84;5077777;28;45415;-45
2023/12/03 04:37:05;;;;;;;;;51.00;41.00;;;;;0.72;66.52;101772.34;5078825;28;45395;-44
2023/12/03 04:39:31;;;;;;;;;42.00;32.50;;;;;0.73;67.26;101777.50;5079296;28;45317;-41
2023/12/03 04:41:56;;;;;;;;;48.75;38.75;;;;;0.74;67.52;101776.59;5078728;28;45416;-46
2023/12/03 04:44:21;;;;;;;;;50.50;45.00;;;;;0.73;67.51;101771.41;5078759;28;45330;-43
2023/12/03 04:46:47;;;;;;;;;45.50;36.75;;;;;0.70;66.52;101759.28;5077773;27;45471;-42
2023/12/03 04:49:13;;;;;;;;;59.50;45.25;;;;;0.70;67.51;101758.44;5079003;28;45484;-46
2023/12/03 04:51:38;;;;;;;;;55.00;40.50;;;;;0.60;66.99;101757.09;5060182;28;47079;-45
2023/12/03 04:54:04;;;;;;;;;57.75;44.50;;;;;0.63;66.83;101749.97;5060442;28;45442;-43
2023/12/03 04:56:29;;;;;;;;;48.50;38.25;;;;;0.65;66.64;101755.16;5078693;28;45379;-45
2023/12/03 04:58:54;;;;;;;;;46.25;31.00;;;;;0.62;66.88;101755.25;5078518;28;45458;-45
2023/12/03 05:01:20;;;;;;;;;64.75;45.00;;;;;0.63;67.54;101747.34;5078426;28;49527;-44
2023/12/03 05:03:45;;;;;;;;;49.75;42.75;;;;;0.62;67.20;101745.63;5078413;28;45418;-43
2023/12/03 05:06:11;;;;;;;;;48.50;35.75;;;;;0.61;67.45;101748.31;5078753;28;45427;-43
2023/12/03 05:08:37;;;;;;;;;54.25;38.25;;;;;0.65;67.86;101739.44;5078639;28;45304;-42
2023/12/03 05:11:04;;;;;;;;;59.00;44.25;;;;;0.67;67.49;101742.84;5078433;28;46129;-43
2023/12/03 05:13:29;;;;;;;;;55.00;40.75;;;;;0.68;67.27;101745.41;5077913;28;45404;-42
2023/12/03 05:15:55;;;;;;;;;38.00;35.25;;;;;0.70;66.86;101743.56;5060343;28;45462;-43
2023/12/03 05:18:20;;;;;;;;;46.00;36.50;;;;;0.68;67.09;101734.94;5078739;28;45228;-44
2023/12/03 05:20:45;;;;;;;;;57.25;36.75;;;;;0.64;67.13;101735.13;5078196;28;45945;-44
2023/12/03 05:23:12;;;;;;;;;55.25;43.00;;;;;0.67;67.45;101746.31;5078031;28;46546;-43
2023/12/03 05:25:37;;;;;;;;;51.75;38.00;;;;;0.66;67.64;101735.91;5078369;28;45360;-45
2023/12/03 05:28:03;;;;;;;;;50.00;41.00;;;;;0.65;66.84;101735.03;5078137;28;45244;-43
2023/12/03 05:30:28;;;;;;;;;34.75;28.75;;;;;0.65;66.88;101734.19;5078193;28;45947;-41
2023/12/03 05:32:54;;;;;;;;;44.75;34.75;;;;;0.65;67.30;101734.19;5078001;28;45393;-43
2023/12/03 05:35:19;;;;;;;;;53.50;40.00;;;;;0.67;67.52;101727.97;5077918;28;45487;-42
2023/12/03 05:37:44;;;;;;;;;61.00;49.00;;;;;0.71;67.82;101732.19;5078170;28;45429;-42
2023/12/03 05:40:10;;;;;;;;;48.00;34.25;;;;;0.72;67.28;101733.91;5077648;28;50360;-42
2023/12/03 05:42:35;;;;;;;;;49.50;40.00;;;;;0.72;67.52;101735.69;5077912;28;45378;-43
2023/12/03 05:45:01;;;;;;;;;55.25;43.25;;;;;0.73;67.42;101726.91;5077888;28;45731;-44
2023/12/03 05:47:26;;;;;;;;;54.00;41.75;;;;;0.73;67.33;101719.91;5077967;28;45446;-44
2023/12/03 05:49:52;;;;;;;;;40.75;40.00;;;;;0.74;67.50;101718.13;5077890;28;45989;-44
2023/12/03 05:52:17;;;;;;;;;44.25;35.00;;;;;0.76;67.16;101721.56;5077635;28;45418;-44
2023/12/03 05:54:42;;;;;;;;;57.00;38.00;;;;;0.78;67.56;101724.94;5077895;28;45399;-44
2023/12/03 05:57:08;;;;;;;;;43.75;34.75;;;;;0.82;67.24;101731.78;5078051;28;45228;-46
2023/12/03 05:59:33;;;;;;;;;39.25;26.00;;;;;0.83;67.16;101728.22;5077191;28;45675;-44
2023/12/03 06:01:58;;;;;;;;;66.75;42.50;;;;;0.83;67.24;101735.25;5077702;28;45421;-43
2023/12/03 06:04:24;;;;;;;;;52.50;39.50;;;;;0.83;67.25;101741.31;5077675;28;45415;-45
2023/12/03 06:06:49;;;;;;;;;53.75;40.50;;;;;0.86;66.90;101735.97;5077970;28;45220;-43
2023/12/03 06:09:14;;;;;;;;;48.75;39.75;;;;;0.88;67.02;101728.91;5077274;28;45352;-44
2023/12/03 06:11:40;;;;;;;;;48.75;40.25;;;;;0.88;67.09;101725.44;5077226;28;45418;-45
2023/12/03 06:14:05;;;;;;;;;46.75;36.75;;;;;0.87;66.98;101724.59;5058835;28;46483;-47
2023/12/03 06:16:31;;;;;;;;;42.25;33.75;;;;;0.92;66.88;101740.13;5077910;28;45381;-47
2023/12/03 06:18:57;;;;;;;;;46.00;38.50;;;;;0.93;66.86;101734.00;5077332;28;45319;-49
2023/12/03 06:21:22;;;;;;;;;49.25;39.25;;;;;0.88;66.75;101707.09;5077141;28;45335;-49
2023/12/03 06:23:48;;;;;;;;;50.00;31.00;;;;;0.82;66.89;101700.34;5077404;28;45372;-46
2023/12/03 06:26:13;;;;;;;;;38.50;28.50;;;;;0.77;66.61;101702.28;5077459;28;45370;-48
2023/12/03 06:28:39;;;;;;;;;56.75;45.00;;;;;0.68;67.59;101687.81;5075644;28;45604;-47
2023/12/03 06:31:05;;;;;;;;;41.25;29.75;;;;;0.76;67.00;101703.22;5077130;28;45347;-48
2023/12/03 06:33:31;;;;;;;;;40.25;36.50;;;;;0.67;67.00;101699.16;5077007;28;45569;-46
2023/12/03 06:35:56;;;;;;;;;39.00;36.25;;;;;0.69;67.54;101713.06;5077396;28;45411;-43
2023/12/03 06:38:21;;;;;;;;;36.50;27.50;;;;;0.70;67.32;101706.91;5077048;28;45335;-46
2023/12/03 06:40:47;;;;;;;;;54.75;37.50;;;;;0.78;67.71;101711.00;5076958;28;45440;-49
2023/12/03 06:43:12;;;;;;;;;37.00;30.75;;;;;0.77;67.69;101702.28;5077122;28;45373;-48
2023/12/03 06:45:38;;;;;;;;;35.25;26.25;;;;;0.80;67.14;101701.31;5077183;28;45233;-46
2023/12/03 06:48:04;;;;;;;;;41.00;32.00;;;;;0.81;67.39;101705.66;5076661;28;45351;-43
2023/12/03 06:50:29;;;;;;;;;40.75;34.00;;;;;0.80;66.97;101703.94;5076977;28;45431;-44
2023/12/03 06:52:54;;;;;;;;;45.75;33.25;;;;;0.85;67.36;101715.09;5076928;28;45351;-44
2023/12/03 06:55:20;;;;;;;;;45.00;32.00;;;;;0.86;67.20;101722.88;5077088;28;45327;-44
2023/12/03 06:57:45;;;;;;;;;43.00;32.50;;;;;0.90;66.90;101713.13;5076753;28;46198;-43
2023/12/03 07:00:10;;;;;;;;;43.00;38.00;;;;;0.91;66.96;101712.22;5076486;28;52035;-45
2023/12/03 07:02:36;;;;;;;;;41.00;29.50;;;;;0.87;67.37;101719.34;5076854;28;45339;-45
2023/12/03 07:05:02;;;;;;;;;55.75;31.25;;;;;0.86;67.33;101714.19;5076984;28;45367;-45
2023/12/03 07:07:27;;;;;;;;;48.00;34.00;;;;;0.89;67.12;101716.69;5076809;28;47185;-43
2023/12/03 07:09:53;;;;;;;;;43.75;31.00;;;;;0.87;67.41;101716.72;5077239;28;45348;-44
2023/12/03 07:12:18;;;;;;;;;35.50;29.50;;;;;0.85;67.58;101715.09;5080261;28;45403;-44
2023/12/03 07:14:43;;;;;;;;;48.00;36.25;;;;;0.88;67.53;101715.81;5080623;28;45427;-44
2023/12/03 07:17:09;;;;;;;;;44.75;32.50;;;;;0.89;67.56;101717.53;5079985;28;46700;-46
2023/12/03 07:19:34;;;;;;;;;45.25;35.25;;;;;0.92;67.72;101713.91;5080102;28;45324;-46
2023/12/03 07:21:59;;;;;;;;;57.00;38.25;;;;;0.90;67.32;101721.00;5080012;28;45423;-43
2023/12/03 07:24:25;;;;;;;;;44.75;29.00;;;;;0.89;67.17;101720.16;5080544;28;45774;-44
2023/12/03 07:26:50;;;;;;;;;32.50;27.75;;;;;0.93;67.63;101719.13;5079529;28;49809;-45
2023/12/03 07:29:18;;;;;;;;;48.25;35.50;;;;;0.90;67.63;101716.59;5079730;28;45332;-44
2023/12/03 07:31:44;;;;;;;;;41.25;33.75;;;;;0.98;67.40;101722.41;5080169;28;45364;-44
2023/12/03 07:34:09;;;;;;;;;45.25;34.25;;;;;1.01;67.33;101731.88;5080201;28;45355;-43
2023/12/03 07:36:35;;;;;;;;;38.75;27.25;;;;;1.03;67.11;101737.94;5079733;28;46113;-44
2023/12/03 07:39:00;;;;;;;;;38.25;21.75;;;;;1.01;67.25;101731.88;5079786;28;45429;-44
2023/12/03 07:41:25;;;;;;;;;48.25;37.00;;;;;0.91;67.18;101720.06;5079916;28;45329;-44
2023/12/03 07:43:51;;;;;;;;;38.25;28.00;;;;;1.02;67.19;101730.16;5061696;28;45454;-45
2023/12/03 07:46:17;;;;;;;;;32.00;32.00;;;;;1.11;67.52;101741.09;5079634;28;47183;-44
2023/12/03 07:48:42;;;;;;;;;58.25;33.75;;;;;1.00;66.76;101711.84;5079850;28;45415;-44
2023/12/03 07:51:11;;;;;;;;;35.25;28.50;;;;;1.12;66.75;101726.22;5079740;28;45406;-44
2023/12/03 07:53:37;;;;;;;;;37.25;23.25;;;;;1.11;66.93;101724.53;5079720;28;45348;-50
2023/12/03 07:56:03;;;;;;;;;37.25;27.00;;;;;1.10;67.34;101723.69;5079458;28;45449;-45
2023/12/03 07:58:29;;;;;;;;;42.00;35.25;;;;;1.11;67.08;101721.91;5079482;28;45370;-43
2023/12/03 08:00:54;;;;;;;;;40.75;33.25;;;;;1.19;66.63;101719.84;5079443;28;45588;-42
2023/12/03 08:03:19;;;;;;;;;49.50;31.75;;;;;1.19;66.47;101711.97;5061496;28;45559;-43
2023/12/03 08:05:44;;;;;;;;;37.75;30.00;;;;;1.17;66.67;101706.78;5079205;28;49037;-44
2023/12/03 08:08:10;;;;;;;;;12.50;9.50;;;;;1.16;67.21;101706.84;5079049;28;51925;-43
2023/12/03 08:10:35;;;;;;;;;33.25;25.00;;;;;1.16;67.03;101712.09;5079203;28;47282;-45
2023/12/03 08:13:00;;;;;;;;;45.75;36.00;;;;;1.21;67.20;101712.75;5079374;28;45364;-44
2023/12/03 08:15:26;;;;;;;;;38.25;29.50;;;;;1.22;66.52;101688.22;5079035;28;46000;-44
2023/12/03 08:17:51;;;;;;;;;37.75;28.00;;;;;1.19;66.89;101689.22;5061154;28;45358;-44
2023/12/03 08:20:17;;;;;;;;;38.25;23.50;;;;;1.20;67.38;101695.31;5079404;28;45218;-44
2023/12/03 08:22:42;;;;;;;;;47.75;37.00;;;;;1.23;67.15;101698.66;5079480;28;45364;-44
2023/12/03 08:25:08;;;;;;;;;42.50;35.00;;;;;1.21;66.80;101684.75;5078887;28;46844;-46
2023/12/03 08:27:33;;;;;;;;;32.00;26.00;;;;;1.21;67.29;101676.91;5079001;28;45509;-45
2023/12/03 08:29:59;;;;;;;;;41.75;36.25;;;;;1.19;67.80;101681.38;5079246;28;45429;-42
2023/12/03 08:32:24;;;;;;;;;37.50;31.50;;;;;1.20;67.21;101683.06;5079493;28;45266;-44
2023/12/03 08:34:50;;;;;;;;;31.50;25.25;;;;;1.22;67.19;101685.59;5078864;28;45494;-44
2023/12/03 08:37:16;;;;;;;;;39.25;29.75;;;;;1.24;66.91;101689.88;5078950;28;45477;-45
2023/12/03 08:39:41;;;;;;;;;30.25;28.50;;;;;1.20;67.14;101682.22;5079141;28;45421;-42
2023/12/03 08:42:07;;;;;;;;;61.00;39.00;;;;;1.23;67.36;101689.97;5079261;28;45400;-47
2023/12/03 08:44:32;;;;;;;;;48.25;26.75;;;;;1.23;66.83;101674.22;5078937;28;47032;-44
2023/12/03 08:46:59;;;;;;;;;39.75;32.75;;;;;1.28;67.23;101681.91;5078681;28;45311;-45
2023/12/03 08:49:24;;;;;;;;;46.25;33.50;;;;;1.32;66.52;101681.72;5077582;28;45300;-44
2023/12/03 08:51:50;;;;;;;;;57.50;39.50;;;;;0.93;66.64;101608.25;5078792;28;45299;-44
2023/12/03 08:54:15;;;;;;;;;41.00;20.00;;;;;1.35;66.74;101673.72;5077875;28;45461;-44
2023/12/03 08:56:43;;;;;;;;;41.50;33.75;;;;;1.36;67.13;101669.31;5078553;28;45435;-44
2023/12/03 08:59:08;;;;;;;;;44.00;33.75;;;;;1.37;66.46;101652.69;5078746;28;45436;-43
2023/12/03 09:01:33;;;;;;;;;45.25;32.50;;;;;1.41;66.58;101655.09;5078555;28;45526;-48
2023/12/03 09:03:59;;;;;;;;;45.00;33.00;;;;;1.47;66.14;101652.19;5078486;28;46124;-41
2023/12/03 09:06:24;;;;;;;;;52.75;34.50;;;;;1.52;66.41;101659.00;5078301;28;48068;-42
2023/12/03 09:08:50;;;;;;;;;43.75;27.75;;;;;1.69;65.84;101672.28;5078399;28;45319;-43
2023/12/03 09:11:15;;;;;;;;;50.00;31.50;;;;;1.74;65.93;101665.91;5078772;28;45430;-43
2023/12/03 09:13:40;;;;;;;;;41.00;33.50;;;;;1.87;65.42;101665.34;5078166;28;45428;-44
2023/12/03 09:16:06;;;;;;;;;38.50;26.50;;;;;1.85;65.64;101659.31;5078306;28;45482;-43
2023/12/03 09:18:34;;;;;;;;;42.00;32.25;;;;;1.94;65.67;101669.41;5078464;28;45283;-43
2023/12/03 09:20:59;;;;;;;;;41.75;34.25;;;;;1.90;65.13;101670.47;5078880;28;45340;-45
2023/12/03 09:23:24;;;;;;;;;36.75;32.25;;;;;1.83;65.22;101661.16;5078139;28;46733;-43
2023/12/03 09:25:50;;;;;;;;;47.25;36.75;;;;;1.88;65.08;101667.91;5078381;28;45271;-49
2023/12/03 09:28:16;;;;;;;;;44.50;36.75;;;;;1.89;65.14;101660.88;5078172;28;48071;-44
2023/12/03 09:30:41;;;;;;;;;43.00;28.00;;;;;1.92;64.67;101660.75;5060385;28;45453;-45
2023/12/03 09:33:06;;;;;;;;;32.50;30.00;;;;;1.95;64.88;101660.63;5077317;28;50547;-44
2023/12/03 09:35:32;;;;;;;;;38.75;30.00;;;;;1.90;64.83;101654.72;5077957;28;45331;-45
2023/12/03 09:37:57;;;;;;;;;41.50;25.75;;;;;1.95;64.99;101650.97;5078785;28;45241;-44
2023/12/03 09:40:23;;;;;;;;;42.75;29.25;;;;;1.96;64.79;101652.66;5078633;28;45372;-45
2023/12/03 09:42:50;;;;;;;;;29.00;26.25;;;;;1.98;64.82;101652.59;5064711;27;46332;-45
2023/12/03 09:45:19;;;;;;;;;49.25;35.75;;;;;1.91;64.94;101646.78;5071965;28;45502;-48
2023/12/03 09:47:49;;;;;;;;;24.50;21.25;;;;;1.99;64.38;101662.19;5074596;28;45357;-42
2023/12/03 09:50:14;;;;;;;;;39.50;27.25;;;;;2.04;64.61;101657.56;5075200;28;45595;-44
2023/12/03 09:52:42;;;;;;;;;37.75;28.00;;;;;2.11;64.29;101656.38;5074623;28;45926;-44
2023/12/03 09:55:08;;;;;;;;;45.00;36.00;;;;;2.14;63.82;101663.25;5074665;28;45714;-44
2023/12/03 09:57:35;;;;;;;;;38.75;30.75;;;;;2.17;63.79;101663.13;5075103;28;45359;-47
2023/12/03 10:00:05;;;;;;;;;37.25;30.25;;;;;2.31;63.98;101665.94;5075184;28;45466;-45
2023/12/03 10:02:33;;;;;;;;;35.50;27.75;;;;;2.23;63.11;101655.81;5074747;28;46651;-44
2023/12/03 10:04:58;;;;;;;;;33.75;27.00;;;;;2.38;63.59;101675.25;5075062;28;45483;-43
2023/12/03 10:07:28;;;;;;;;;50.50;35.75;;;;;2.40;63.17;101685.66;5074831;28;45352;-44
2023/12/03 10:09:57;;;;;;;;;35.25;32.75;;;;;2.41;63.18;101674.28;5074754;28;45547;-43
2023/12/03 10:12:25;;;;;;;;;31.50;29.25;;;;;2.39;63.07;101668.22;5074408;28;46073;-43
2023/12/03 10:14:50;;;;;;;;;42.00;27.25;;;;;2.36;62.81;101673.59;5074333;28;45375;-42
2023/12/03 10:17:22;;;;;;;;;38.25;27.00;;;;;2.34;62.69;101670.22;5074329;28;45332;-43
2023/12/03 10:19:47;;;;;;;;;31.25;21.50;;;;;2.37;62.92;101670.09;5074777;28;45481;-44
2023/12/03 10:22:13;;;;;;;;;30.00;26.00;;;;;2.33;63.14;101637.88;5074326;28;46115;-45
2023/12/03 10:24:48;;;;;;;;;32.75;22.00;;;;;2.44;63.06;101637.34;5074360;28;45555;-42
2023/12/03 10:27:14;;;;;;;;;34.25;26.75;;;;;2.52;62.71;101647.50;5081041;27;45264;-42
2023/12/03 10:29:40;;;;;;;;;33.50;25.50;;;;;2.57;62.04;101646.38;5071224;28;45584;-43
2023/12/03 10:32:06;;;;;;;;;25.00;22.75;;;;;2.60;61.85;101646.19;5076662;28;46112;-45
2023/12/03 10:34:31;;;;;;;;;34.75;25.25;;;;;2.69;61.99;101647.53;5076604;28;45338;-43
2023/12/03 10:36:57;;;;;;;;;42.50;26.50;;;;;2.71;61.96;101636.03;5076902;28;45517;-44
2023/12/03 10:39:22;;;;;;;;;26.50;23.50;;;;;2.77;61.58;101632.25;5077182;28;45307;-45
2023/12/03 10:41:51;;;;;;;;;37.75;24.50;;;;;2.81;61.07;101628.53;5076313;28;54712;-44
2023/12/03 10:44:18;;;;;;;;;30.50;22.00;;;;;2.79;61.04;101624.31;5075137;28;45429;-43
2023/12/03 10:46:44;;;;;;;;;39.50;29.50;;;;;2.82;61.81;101622.34;5069374;27;45398;-43
2023/12/03 10:49:12;;;;;;;;;31.50;26.75;;;;;2.84;61.01;101614.41;5069970;28;45455;-45
2023/12/03 10:51:41;;;;;;;;;35.75;31.00;;;;;2.79;61.56;101608.53;5074588;27;45322;-43
2023/12/03 10:54:06;;;;;;;;;44.00;32.00;;;;;2.79;61.37;101608.53;5072527;28;45446;-44
2023/12/03 10:56:32;;;;;;;;;38.00;22.75;;;;;2.75;61.56;101606.06;5056901;28;45438;-42
2023/12/03 10:59:02;;;;;;;;;34.75;30.75;;;;;2.79;61.81;101596.25;5076169;28;45752;-42
2023/12/03 11:01:30;;;;;;;;;43.25;31.00;;;;;2.84;62.30;101585.50;5072407;27;46127;-45
2023/12/03 11:04:00;;;;;;;;;39.50;27.00;;;;;2.78;61.83;101591.06;5074124;28;45422;-43
2023/12/03 11:06:26;;;;;;;;;41.25;27.75;;;;;2.74;62.15;101562.31;5075509;28;45407;-44
2023/12/03 11:08:55;;;;;;;;;35.25;27.25;;;;;2.97;61.35;101591.84;5057423;28;45606;-45